createdAt,value
2022-12-12T00:02:16.163Z,7.40
2022-12-12T00:05:18.390Z,6.60
2022-12-12T00:08:19.966Z,7.17
2022-12-12T00:11:22.388Z,10.40
2022-12-12T00:14:23.951Z,14.07
2022-12-12T00:17:25.727Z,15.27
2022-12-12T00:20:27.300Z,13.57
2022-12-12T00:23:28.857Z,14.60
2022-12-12T00:26:31.486Z,16.77
2022-12-12T00:29:33.522Z,13.70
2022-12-12T00:32:35.222Z,12.20
2022-12-12T00:35:36.805Z,11.13
2022-12-12T00:38:38.356Z,12.30
2022-12-12T00:41:39.918Z,10.37
2022-12-12T00:44:41.563Z,9.90
2022-12-12T00:47:43.139Z,11.27
2022-12-12T00:50:45.251Z,14.03
2022-12-12T00:53:47.257Z,13.67
2022-12-12T00:56:49.442Z,14.13
2022-12-12T00:59:51.030Z,14.93
2022-12-12T01:02:52.876Z,14.63
2022-12-12T01:05:54.432Z,15.40
2022-12-12T01:08:56.319Z,12.43
2022-12-12T01:11:57.912Z,13.17
2022-12-12T01:14:59.531Z,12.60
2022-12-12T01:18:01.155Z,14.13
2022-12-12T01:21:03.078Z,13.13
2022-12-12T01:24:04.853Z,13.33
2022-12-12T01:27:06.547Z,12.90
2022-12-12T01:30:09.275Z,12.50
2022-12-12T01:33:10.913Z,11.67
2022-12-12T01:36:16.457Z,12.07
2022-12-12T01:39:18.103Z,12.20
2022-12-12T01:42:19.663Z,12.77
2022-12-12T01:45:40.125Z,15.40
2022-12-12T01:48:43.868Z,15.03
2022-12-12T01:51:46.083Z,13.50
2022-12-12T01:54:51.126Z,13.50
2022-12-12T01:57:54.649Z,13.57
2022-12-12T02:00:56.564Z,12.83
2022-12-12T02:03:59.259Z,13.67
2022-12-12T02:07:01.189Z,11.60
2022-12-12T02:10:02.767Z,13.23
2022-12-12T02:13:10.299Z,13.37
2022-12-12T02:16:18.479Z,12.13
2022-12-12T02:19:26.070Z,12.73
2022-12-12T02:22:30.415Z,12.47
2022-12-12T02:25:52.216Z,11.40
2022-12-12T02:29:12.244Z,11.93
2022-12-12T02:32:25.110Z,11.10
2022-12-12T02:35:32.917Z,11.57
2022-12-12T02:38:41.508Z,12.17
2022-12-12T02:41:44.481Z,11.60
2022-12-12T02:44:54.530Z,11.83
2022-12-12T02:48:00.139Z,10.00
2022-12-12T02:51:04.022Z,8.90
2022-12-12T02:54:06.208Z,9.60
2022-12-12T02:57:34.216Z,9.73
2022-12-12T03:00:42.422Z,10.83
2022-12-12T03:04:08.896Z,10.77
2022-12-12T03:07:35.272Z,11.10
2022-12-12T03:10:42.693Z,11.83
2022-12-12T03:13:52.822Z,9.67
2022-12-12T03:17:27.069Z,10.17
2022-12-12T03:20:33.290Z,10.00
2022-12-12T03:23:37.921Z,10.47
2022-12-12T03:26:46.166Z,10.30
2022-12-12T03:29:59.758Z,10.13
2022-12-12T03:33:01.327Z,9.20
2022-12-12T03:36:09.832Z,9.13
2022-12-12T03:39:30.188Z,8.27
2022-12-12T03:42:37.678Z,9.97
2022-12-12T03:45:52.354Z,9.77
2022-12-12T03:48:57.606Z,11.10
2022-12-12T03:52:00.923Z,11.53
2022-12-12T03:55:05.005Z,11.80
2022-12-12T03:58:21.640Z,12.03
2022-12-12T04:01:25.543Z,13.13
2022-12-12T04:04:44.196Z,14.17
2022-12-12T04:07:49.692Z,14.40
2022-12-12T04:11:12.224Z,13.83
2022-12-12T04:14:27.166Z,11.60
2022-12-12T04:17:34.235Z,10.60
2022-12-12T04:21:06.483Z,11.80
2022-12-12T04:24:31.445Z,11.83
2022-12-12T04:27:44.932Z,12.67
2022-12-12T04:30:46.524Z,12.13
2022-12-12T04:33:50.186Z,14.90
2022-12-12T04:36:52.352Z,19.97
2022-12-12T04:39:55.605Z,23.03
2022-12-12T04:42:59.319Z,26.60
2022-12-12T04:46:03.784Z,18.33
2022-12-12T04:49:07.942Z,20.77
2022-12-12T04:52:11.277Z,20.37
2022-12-12T04:55:15.247Z,14.50
2022-12-12T04:58:17.730Z,15.27
2022-12-12T05:01:19.317Z,16.20
2022-12-12T05:04:27.649Z,15.43
2022-12-12T05:07:39.265Z,15.97
2022-12-12T05:10:45.027Z,15.53
2022-12-12T05:13:47.044Z,15.20
2022-12-12T05:16:50.433Z,14.73
2022-12-12T05:19:52.041Z,15.23
2022-12-12T05:22:53.656Z,14.47
2022-12-12T05:25:55.330Z,17.20
2022-12-12T05:28:59.848Z,13.77
2022-12-12T05:32:03.977Z,14.50
2022-12-12T05:35:06.506Z,14.57
2022-12-12T05:38:08.144Z,15.93
2022-12-12T05:41:09.772Z,15.80
2022-12-12T05:44:11.501Z,14.40
2022-12-12T05:47:13.255Z,15.60
2022-12-12T05:50:14.893Z,15.13
2022-12-12T05:53:16.717Z,15.40
2022-12-12T05:56:18.351Z,20.30
2022-12-12T05:59:19.955Z,15.50
2022-12-12T06:02:21.772Z,14.40
2022-12-12T06:05:23.568Z,14.80
2022-12-12T06:08:25.503Z,14.50
2022-12-12T06:11:27.160Z,14.13
2022-12-12T06:14:28.780Z,13.87
2022-12-12T06:17:33.255Z,13.63
2022-12-12T06:20:35.940Z,15.20
2022-12-12T06:23:41.499Z,16.40
2022-12-12T06:26:43.096Z,16.00
2022-12-12T06:29:44.814Z,25.37
2022-12-12T06:32:46.386Z,15.43
2022-12-12T06:35:57.492Z,15.53
2022-12-12T06:39:00.259Z,20.10
2022-12-12T06:42:01.924Z,18.70
2022-12-12T06:45:03.976Z,23.10
2022-12-12T06:48:05.700Z,21.90
2022-12-12T06:51:08.184Z,23.57
2022-12-12T06:54:13.695Z,23.57
2022-12-12T06:57:15.296Z,25.47
2022-12-12T07:00:17.034Z,26.73
2022-12-12T07:03:18.947Z,27.73
2022-12-12T07:06:21.576Z,25.27
2022-12-12T07:09:23.241Z,25.10
2022-12-12T07:12:24.876Z,26.73
2022-12-12T07:15:26.664Z,22.70
2022-12-12T07:18:28.355Z,23.73
2022-12-12T07:21:29.928Z,26.90
2022-12-12T07:24:31.496Z,21.67
2022-12-12T07:27:33.118Z,48.27
2022-12-12T07:30:34.681Z,39.63
2022-12-12T07:33:43.698Z,23.80
2022-12-12T07:36:45.884Z,21.53
2022-12-12T07:39:47.481Z,21.40
2022-12-12T07:42:49.145Z,12.83
2022-12-12T07:45:50.764Z,14.03
2022-12-12T07:48:53.183Z,11.50
2022-12-12T07:51:54.801Z,15.50
2022-12-12T07:54:56.397Z,17.83
2022-12-12T07:57:58.155Z,14.40
2022-12-12T08:00:59.714Z,16.07
2022-12-12T08:04:01.996Z,16.47
2022-12-12T08:07:08.319Z,15.77
2022-12-12T08:10:10.601Z,15.10
2022-12-12T08:13:12.179Z,14.60
2022-12-12T08:16:15.602Z,19.97
2022-12-12T08:19:17.501Z,19.27
2022-12-12T08:22:19.453Z,17.23
2022-12-12T08:25:22.147Z,14.60
2022-12-12T08:28:23.851Z,11.47
2022-12-12T08:31:26.164Z,13.57
2022-12-12T08:34:27.870Z,19.30
2022-12-12T08:37:30.171Z,13.53
2022-12-12T08:40:31.776Z,16.13
2022-12-12T08:43:33.438Z,30.50
2022-12-12T08:46:35.108Z,18.33
2022-12-12T08:49:36.702Z,20.33
2022-12-12T08:52:38.336Z,16.80
2022-12-12T08:55:41.017Z,12.10
2022-12-12T08:58:43.286Z,17.27
2022-12-12T09:01:45.094Z,19.63
2022-12-12T09:04:46.759Z,24.23
2022-12-12T09:07:48.654Z,23.00
2022-12-12T09:10:50.567Z,19.53
2022-12-12T09:13:52.507Z,19.50
2022-12-12T09:16:54.141Z,18.63
2022-12-12T09:19:55.818Z,62.93
2022-12-12T09:22:57.763Z,31.70
2022-12-12T09:26:03.516Z,22.30
2022-12-12T09:29:06.140Z,25.70
2022-12-12T09:32:07.724Z,27.37
2022-12-12T09:35:09.530Z,27.37
2022-12-12T09:38:14.660Z,23.50
2022-12-12T09:41:18.057Z,21.70
2022-12-12T09:44:22.551Z,21.43
2022-12-12T09:47:35.989Z,25.00
2022-12-12T09:50:42.517Z,21.53
2022-12-12T09:53:46.078Z,21.03
2022-12-12T09:56:56.042Z,21.50
2022-12-12T10:00:03.762Z,19.40
2022-12-12T10:03:21.625Z,19.00
2022-12-12T10:06:38.701Z,20.17
2022-12-12T10:09:45.929Z,19.10
2022-12-12T10:12:48.000Z,18.93
2022-12-12T10:15:51.332Z,19.40
2022-12-12T10:18:53.926Z,16.60
2022-12-12T10:21:57.853Z,25.07
2022-12-12T10:25:19.159Z,21.57
2022-12-12T10:28:23.409Z,17.07
2022-12-12T10:31:43.506Z,16.47
2022-12-12T10:34:55.313Z,16.50
2022-12-12T10:38:00.027Z,16.13
2022-12-12T10:41:13.234Z,17.67
2022-12-12T10:44:17.853Z,17.67
2022-12-12T10:47:19.624Z,19.63
2022-12-12T10:50:31.623Z,17.27
2022-12-12T10:53:33.831Z,17.33
2022-12-12T10:56:35.479Z,16.80
2022-12-12T10:59:41.070Z,17.57
2022-12-12T11:02:43.402Z,19.40
2022-12-12T11:05:45.438Z,18.00
2022-12-12T11:08:54.833Z,17.97
2022-12-12T11:12:01.193Z,22.20
2022-12-12T11:15:06.522Z,22.50
2022-12-12T11:18:13.144Z,25.03
2022-12-12T11:21:15.003Z,25.70
2022-12-12T11:24:18.267Z,21.07
2022-12-12T11:27:21.739Z,16.60
2022-12-12T11:30:28.215Z,22.57
2022-12-12T11:33:33.086Z,24.90
2022-12-12T11:36:35.949Z,23.60
2022-12-12T11:39:41.324Z,63.70
2022-12-12T11:42:42.944Z,19.83
2022-12-12T11:45:57.153Z,18.87
2022-12-12T11:49:00.316Z,21.53
2022-12-12T11:52:17.010Z,17.87
2022-12-12T11:55:24.157Z,21.97
2022-12-12T11:58:35.263Z,23.77
2022-12-12T12:01:43.120Z,22.60
2022-12-12T12:04:53.602Z,15.43
2022-12-12T12:08:01.485Z,18.37
2022-12-12T12:11:35.552Z,19.40
2022-12-12T12:14:50.926Z,20.23
2022-12-12T12:17:53.097Z,22.27
2022-12-12T12:21:00.888Z,21.03
2022-12-12T12:24:18.963Z,26.63
2022-12-12T12:27:26.620Z,21.83
2022-12-12T12:30:32.446Z,27.87
2022-12-12T12:33:34.037Z,27.73
2022-12-12T12:36:54.226Z,26.87
2022-12-12T12:40:02.207Z,54.90
2022-12-12T12:43:25.019Z,27.70
2022-12-12T12:46:29.767Z,33.90
2022-12-12T12:49:41.349Z,34.27
2022-12-12T12:52:54.901Z,28.17
2022-12-12T12:55:59.102Z,32.40
2022-12-12T12:59:08.956Z,27.27
2022-12-12T13:02:21.195Z,30.90
2022-12-12T13:05:26.864Z,56.87
2022-12-12T13:08:28.481Z,24.43
2022-12-12T13:11:35.382Z,24.50
2022-12-12T13:14:37.040Z,24.87
2022-12-12T13:17:45.257Z,21.97
2022-12-12T13:20:46.855Z,23.30
2022-12-12T13:23:51.419Z,23.93
2022-12-12T13:27:01.888Z,23.83
2022-12-12T13:30:10.211Z,24.63
2022-12-12T13:33:24.106Z,25.70
2022-12-12T13:36:30.039Z,24.80
2022-12-12T13:39:33.491Z,26.20
2022-12-12T13:42:52.077Z,27.63
2022-12-12T13:45:54.421Z,31.47
2022-12-12T13:49:01.071Z,29.63
2022-12-12T13:52:29.167Z,83.93
2022-12-12T13:55:31.050Z,30.50
2022-12-12T13:58:33.891Z,25.40
2022-12-12T14:01:40.578Z,19.33
2022-12-12T14:04:44.560Z,20.77
2022-12-12T14:07:50.918Z,19.63
2022-12-12T14:10:54.795Z,21.47
2022-12-12T14:14:19.864Z,21.20
2022-12-12T14:17:22.924Z,17.63
2022-12-12T14:20:26.897Z,18.27
2022-12-12T14:23:30.918Z,19.57
2022-12-12T14:26:32.565Z,22.70
2022-12-12T14:29:39.206Z,27.97
2022-12-12T14:32:46.064Z,32.00
2022-12-12T14:35:55.762Z,43.60
2022-12-12T14:39:19.850Z,108.97
2022-12-12T14:43:21.289Z,39.77
2022-12-12T14:45:59.495Z,28.07
2022-12-12T14:49:03.746Z,24.03
2022-12-12T14:52:05.587Z,23.20
2022-12-12T14:55:07.475Z,21.83
2022-12-12T14:58:09.282Z,20.50
2022-12-12T15:01:11.246Z,21.40
2022-12-12T15:04:14.258Z,19.13
2022-12-12T15:07:22.457Z,22.90
2022-12-12T15:10:24.202Z,17.00
2022-12-12T15:13:25.764Z,26.47
2022-12-12T15:16:29.832Z,44.27
2022-12-12T15:19:34.947Z,26.33
2022-12-12T15:22:39.011Z,21.90
2022-12-12T15:25:47.186Z,20.83
2022-12-12T15:28:49.061Z,24.40
2022-12-12T15:31:55.063Z,22.20
2022-12-12T15:35:01.717Z,27.70
2022-12-12T15:38:07.785Z,23.90
2022-12-12T15:41:13.483Z,25.40
2022-12-12T15:44:20.044Z,24.13
2022-12-12T15:47:21.906Z,31.97
2022-12-12T15:50:29.675Z,34.27
2022-12-12T15:53:35.375Z,27.30
2022-12-12T15:56:37.052Z,25.33
2022-12-12T15:59:38.795Z,25.73
2022-12-12T16:02:40.971Z,21.23
2022-12-12T16:05:42.625Z,43.83
2022-12-12T16:08:46.070Z,40.93
2022-12-12T16:11:59.802Z,35.50
2022-12-12T16:15:17.068Z,37.23
2022-12-12T16:18:20.399Z,31.00
2022-12-12T16:21:22.089Z,27.70
2022-12-12T16:24:24.975Z,28.27
2022-12-12T16:27:26.651Z,34.40
2022-12-12T16:30:28.406Z,34.80
2022-12-12T16:33:30.231Z,48.13
2022-12-12T16:36:35.694Z,46.17
2022-12-12T16:39:42.110Z,33.10
2022-12-12T16:42:45.472Z,30.30
2022-12-12T16:45:49.037Z,90.37
2022-12-12T16:48:51.020Z,32.20
2022-12-12T16:51:52.536Z,30.50
2022-12-12T16:54:54.202Z,43.83
2022-12-12T16:57:55.799Z,36.37
2022-12-12T17:00:59.929Z,31.83
2022-12-12T17:04:01.567Z,32.13
2022-12-12T17:07:03.151Z,32.47
2022-12-12T17:10:04.953Z,37.33
2022-12-12T17:13:07.743Z,29.93
2022-12-12T17:16:09.595Z,34.53
2022-12-12T17:19:11.306Z,34.30
2022-12-12T17:22:12.987Z,48.80
2022-12-12T17:25:14.860Z,43.70
2022-12-12T17:28:18.857Z,38.63
2022-12-12T17:31:20.481Z,34.27
2022-12-12T17:34:22.133Z,40.67
2022-12-12T17:37:24.496Z,36.03
2022-12-12T17:40:26.235Z,33.20
2022-12-12T17:43:28.159Z,34.90
2022-12-12T17:46:29.943Z,39.83
2022-12-12T17:49:31.710Z,37.27
2022-12-12T17:52:35.328Z,33.40
2022-12-12T17:55:53.007Z,36.53
2022-12-12T17:58:58.109Z,34.57
2022-12-12T18:01:59.887Z,29.57
2022-12-12T18:05:03.669Z,33.17
2022-12-12T18:08:05.402Z,36.37
2022-12-12T18:11:08.855Z,32.10
2022-12-12T18:14:15.495Z,30.23
2022-12-12T18:17:17.152Z,31.17
2022-12-12T18:20:19.541Z,30.13
2022-12-12T18:23:22.537Z,30.83
2022-12-12T18:26:24.863Z,37.50
2022-12-12T18:29:26.949Z,32.23
2022-12-12T18:32:28.812Z,33.07
2022-12-12T18:35:30.481Z,31.57
2022-12-12T18:38:32.272Z,26.90
2022-12-12T18:41:36.458Z,25.43
2022-12-12T18:44:38.268Z,20.43
2022-12-12T18:47:39.897Z,16.93
2022-12-12T18:50:41.475Z,12.50
2022-12-12T18:53:43.732Z,12.67
2022-12-12T18:56:46.007Z,12.87
2022-12-12T18:59:47.662Z,12.20
2022-12-12T19:02:49.244Z,10.53
2022-12-12T19:05:50.941Z,16.50
2022-12-12T19:08:53.373Z,12.00
2022-12-12T19:12:01.935Z,13.93
2022-12-12T19:15:19.696Z,11.70
2022-12-12T19:18:21.763Z,9.80
2022-12-12T19:21:24.847Z,8.50
2022-12-12T19:24:26.507Z,10.47
2022-12-12T19:27:31.444Z,11.90
2022-12-12T19:30:33.798Z,8.83
2022-12-12T19:33:35.596Z,8.10
2022-12-12T19:36:37.305Z,8.23
2022-12-12T19:39:38.861Z,7.40
2022-12-12T19:42:40.485Z,12.50
2022-12-12T19:45:42.203Z,11.03
2022-12-12T19:48:44.258Z,10.57
2022-12-12T19:51:47.569Z,10.73
2022-12-12T19:54:49.169Z,12.90
2022-12-12T19:57:50.766Z,10.60
2022-12-12T20:00:52.484Z,11.93
2022-12-12T20:03:55.630Z,12.00
2022-12-12T20:06:57.285Z,12.77
2022-12-12T20:09:58.876Z,10.03
2022-12-12T20:13:00.441Z,10.50
2022-12-12T20:16:06.566Z,9.50
2022-12-12T20:19:08.399Z,12.30
2022-12-12T20:22:09.984Z,10.60
2022-12-12T20:25:11.688Z,11.90
2022-12-12T20:28:13.433Z,12.57
2022-12-12T20:31:18.698Z,11.30
2022-12-12T20:34:24.631Z,9.97
2022-12-12T20:37:26.631Z,7.50
2022-12-12T20:40:28.365Z,7.63
2022-12-12T20:43:29.962Z,8.40
2022-12-12T20:46:33.401Z,16.53
2022-12-12T20:49:36.193Z,14.80
2022-12-12T20:52:37.885Z,11.30
2022-12-12T20:55:39.623Z,11.10
2022-12-12T20:58:41.435Z,11.90
2022-12-12T21:01:43.163Z,18.60
2022-12-12T21:04:44.829Z,13.27
2022-12-12T21:07:46.510Z,15.43
2022-12-12T21:10:48.195Z,15.00
2022-12-12T21:13:50.775Z,13.67
2022-12-12T21:16:52.782Z,11.03
2022-12-12T21:19:54.499Z,9.20
2022-12-12T21:22:56.139Z,12.47
2022-12-12T21:25:57.747Z,13.00
2022-12-12T21:29:01.734Z,13.60
2022-12-12T21:32:03.702Z,13.90
2022-12-12T21:35:05.576Z,17.73
2022-12-12T21:38:07.247Z,17.27
2022-12-12T21:41:10.458Z,19.13
2022-12-12T21:44:12.076Z,19.10
2022-12-12T21:47:13.945Z,20.37
2022-12-12T21:50:15.562Z,16.00
2022-12-12T21:53:35.242Z,20.52
2022-12-12T21:56:37.164Z,17.97
2022-12-12T21:59:38.995Z,18.33
2022-12-12T22:02:40.654Z,19.13
2022-12-12T22:05:42.306Z,19.20
2022-12-12T22:08:44.504Z,18.27
2022-12-12T22:11:49.251Z,22.87
2022-12-12T22:14:53.936Z,17.33
2022-12-12T22:17:55.610Z,16.00
2022-12-12T22:21:02.166Z,10.47
2022-12-12T22:24:04.072Z,5.57
2022-12-12T22:27:05.836Z,4.23
2022-12-12T22:30:07.734Z,3.83
2022-12-12T22:33:09.454Z,3.70
2022-12-12T22:36:11.832Z,3.93
2022-12-12T22:39:14.837Z,3.70
2022-12-12T22:42:16.622Z,3.73
2022-12-12T22:45:18.821Z,3.30
2022-12-12T22:48:20.455Z,2.80
2022-12-12T22:51:23.307Z,3.60
2022-12-12T22:54:25.389Z,3.73
2022-12-12T22:57:28.144Z,4.67
2022-12-12T23:00:29.739Z,5.90
2022-12-12T23:03:31.332Z,5.50
2022-12-12T23:06:34.503Z,5.10
2022-12-12T23:09:36.219Z,5.33
2022-12-12T23:12:40.660Z,4.80
2022-12-12T23:15:42.436Z,5.07
2022-12-12T23:18:44.782Z,4.40
2022-12-12T23:21:46.398Z,4.13
2022-12-12T23:24:48.146Z,4.87
2022-12-12T23:27:49.802Z,5.53
2022-12-12T23:30:51.340Z,4.47
2022-12-12T23:33:57.106Z,4.53
2022-12-12T23:36:58.767Z,4.57
2022-12-12T23:40:01.354Z,5.30
2022-12-12T23:43:02.941Z,5.10
2022-12-12T23:46:05.742Z,5.33
2022-12-12T23:49:08.210Z,5.37
2022-12-12T23:52:09.866Z,3.47
2022-12-12T23:55:11.626Z,4.57
2022-12-12T23:58:13.451Z,5.03
